sensor_id;sensor_type;location;lat;lon;timestamp;pressure;altitude;pressure_sealevel;temperature;humidity
78170;BME280;67412;49.892;14.490;2023-08-08T00:00:00;97168.72;;;11.04;92.25
78170;BME280;67412;49.892;14.490;2023-08-08T00:02:25;97165.50;;;10.93;92.83
78170;BME280;67412;49.892;14.490;2023-08-08T00:04:50;97166.22;;;11.01;91.53
78170;BME280;67412;49.892;14.490;2023-08-08T00:07:16;97163.34;;;11.16;90.78
78170;BME280;67412;49.892;14.490;2023-08-08T00:09:41;97161.72;;;11.12;90.68
78170;BME280;67412;49.892;14.490;2023-08-08T00:12:06;97170.50;;;10.99;91.58
78170;BME280;67412;49.892;14.490;2023-08-08T00:14:32;97171.56;;;10.87;92.38
78170;BME280;67412;49.892;14.490;2023-08-08T00:16:57;97166.00;;;10.64;93.39
78170;BME280;67412;49.892;14.490;2023-08-08T00:19:22;97166.09;;;10.59;93.88
78170;BME280;67412;49.892;14.490;2023-08-08T00:21:48;97172.28;;;10.46;94.60
78170;BME280;67412;49.892;14.490;2023-08-08T00:24:13;97180.16;;;10.36;94.17
78170;BME280;67412;49.892;14.490;2023-08-08T00:26:39;97172.63;;;10.27;95.10
78170;BME280;67412;49.892;14.490;2023-08-08T00:29:04;97173.59;;;10.16;95.85
78170;BME280;67412;49.892;14.490;2023-08-08T00:31:29;97168.53;;;10.12;96.68
78170;BME280;67412;49.892;14.490;2023-08-08T00:33:55;97170.25;;;10.10;96.91
78170;BME280;67412;49.892;14.490;2023-08-08T00:36:20;97165.28;;;9.99;96.75
78170;BME280;67412;49.892;14.490;2023-08-08T00:38:45;97169.56;;;9.99;97.66
78170;BME280;67412;49.892;14.490;2023-08-08T00:41:10;97161.13;;;9.91;98.27
78170;BME280;67412;49.892;14.490;2023-08-08T00:43:36;97161.97;;;9.93;98.81
78170;BME280;67412;49.892;14.490;2023-08-08T00:46:01;97167.88;;;9.98;99.67
78170;BME280;67412;49.892;14.490;2023-08-08T00:48:27;97167.91;;;9.95;100.00
78170;BME280;67412;49.892;14.490;2023-08-08T00:50:52;97163.50;;;10.04;100.00
78170;BME280;67412;49.892;14.490;2023-08-08T00:53:18;97174.47;;;10.17;100.00
78170;BME280;67412;49.892;14.490;2023-08-08T00:55:45;97170.97;;;10.21;100.00
78170;BME280;67412;49.892;14.490;2023-08-08T00:58:10;97169.03;;;10.37;99.95
78170;BME280;67412;49.892;14.490;2023-08-08T01:00:36;97162.13;;;10.40;99.23
78170;BME280;67412;49.892;14.490;2023-08-08T01:03:02;97163.78;;;10.43;100.00
78170;BME280;67412;49.892;14.490;2023-08-08T01:05:32;97155.06;;;10.53;99.13
78170;BME280;67412;49.892;14.490;2023-08-08T01:08:06;97154.94;;;10.60;98.53
78170;BME280;67412;49.892;14.490;2023-08-08T01:10:39;97150.63;;;10.61;98.25
78170;BME280;67412;49.892;14.490;2023-08-08T01:13:09;97155.69;;;10.65;98.54
78170;BME280;67412;49.892;14.490;2023-08-08T01:15:36;97146.31;;;10.64;98.24
78170;BME280;67412;49.892;14.490;2023-08-08T01:18:06;97153.13;;;10.67;97.83
78170;BME280;67412;49.892;14.490;2023-08-08T01:20:32;97147.91;;;10.70;98.04
78170;BME280;67412;49.892;14.490;2023-08-08T01:23:28;97156.47;;;10.72;97.39
78170;BME280;67412;49.892;14.490;2023-08-08T01:25:57;97148.78;;;10.71;97.59
78170;BME280;67412;49.892;14.490;2023-08-08T01:28:23;97156.66;;;10.60;98.05
78170;BME280;67412;49.892;14.490;2023-08-08T01:30:49;97155.63;;;10.68;96.88
78170;BME280;67412;49.892;14.490;2023-08-08T01:33:15;97149.72;;;10.65;96.19
78170;BME280;67412;49.892;14.490;2023-08-08T01:35:44;97154.16;;;10.55;96.52
78170;BME280;67412;49.892;14.490;2023-08-08T01:38:30;97157.78;;;10.42;96.03
78170;BME280;67412;49.892;14.490;2023-08-08T01:40:57;97150.81;;;10.52;95.82
78170;BME280;67412;49.892;14.490;2023-08-08T01:43:24;97152.53;;;10.51;95.70
78170;BME280;67412;49.892;14.490;2023-08-08T01:45:50;97153.50;;;10.44;95.88
78170;BME280;67412;49.892;14.490;2023-08-08T01:48:15;97147.44;;;10.47;95.75
78170;BME280;67412;49.892;14.490;2023-08-08T01:50:41;97143.22;;;10.46;96.12
78170;BME280;67412;49.892;14.490;2023-08-08T01:53:06;97150.97;;;10.41;95.88
78170;BME280;67412;49.892;14.490;2023-08-08T01:55:31;97150.19;;;10.38;96.11
78170;BME280;67412;49.892;14.490;2023-08-08T01:57:57;97150.13;;;10.41;96.07
78170;BME280;67412;49.892;14.490;2023-08-08T02:00:22;97145.94;;;10.35;96.17
78170;BME280;67412;49.892;14.490;2023-08-08T02:02:48;97133.81;;;10.43;95.48
78170;BME280;67412;49.892;14.490;2023-08-08T02:05:13;97134.00;;;10.31;95.64
78170;BME280;67412;49.892;14.490;2023-08-08T02:07:38;97138.53;;;10.17;96.07
78170;BME280;67412;49.892;14.490;2023-08-08T02:10:04;97139.38;;;10.19;96.39
78170;BME280;67412;49.892;14.490;2023-08-08T02:12:30;97130.50;;;10.38;94.60
78170;BME280;67412;49.892;14.490;2023-08-08T02:14:56;97137.31;;;10.39;94.63
78170;BME280;67412;49.892;14.490;2023-08-08T02:17:21;97134.78;;;10.38;94.30
78170;BME280;67412;49.892;14.490;2023-08-08T02:19:47;97130.50;;;10.38;94.11
78170;BME280;67412;49.892;14.490;2023-08-08T02:22:12;97128.75;;;10.39;94.03
78170;BME280;67412;49.892;14.490;2023-08-08T02:24:37;97133.75;;;10.46;93.40
78170;BME280;67412;49.892;14.490;2023-08-08T02:27:03;97131.84;;;10.57;92.18
78170;BME280;67412;49.892;14.490;2023-08-08T02:29:29;97124.94;;;10.61;92.00
78170;BME280;67412;49.892;14.490;2023-08-08T02:31:54;97130.91;;;10.63;91.26
78170;BME280;67412;49.892;14.490;2023-08-08T02:34:20;97130.84;;;10.66;91.41
78170;BME280;67412;49.892;14.490;2023-08-08T02:36:45;97128.28;;;10.66;90.51
78170;BME280;67412;49.892;14.490;2023-08-08T02:39:11;97122.34;;;10.62;91.04
78170;BME280;67412;49.892;14.490;2023-08-08T02:41:36;97123.22;;;10.61;91.19
78170;BME280;67412;49.892;14.490;2023-08-08T02:44:01;97127.56;;;10.58;90.82
78170;BME280;67412;49.892;14.490;2023-08-08T02:46:27;97132.69;;;10.59;90.55
78170;BME280;67412;49.892;14.490;2023-08-08T02:48:52;97127.44;;;10.65;90.15
78170;BME280;67412;49.892;14.490;2023-08-08T02:51:17;97130.91;;;10.64;90.19
78170;BME280;67412;49.892;14.490;2023-08-08T02:53:43;97136.97;;;10.60;90.61
78170;BME280;67412;49.892;14.490;2023-08-08T02:56:08;97124.81;;;10.68;90.63
78170;BME280;67412;49.892;14.490;2023-08-08T02:58:33;97126.56;;;10.66;90.87
78170;BME280;67412;49.892;14.490;2023-08-08T03:00:59;97136.72;;;10.74;89.73
78170;BME280;67412;49.892;14.490;2023-08-08T03:03:24;97139.22;;;10.79;90.50
78170;BME280;67412;49.892;14.490;2023-08-08T03:05:49;97138.16;;;10.87;89.80
78170;BME280;67412;49.892;14.490;2023-08-08T03:08:14;97147.72;;;10.81;90.66
78170;BME280;67412;49.892;14.490;2023-08-08T03:10:40;97141.69;;;10.83;90.37
78170;BME280;67412;49.892;14.490;2023-08-08T03:13:06;97139.00;;;10.89;90.25
78170;BME280;67412;49.892;14.490;2023-08-08T03:15:31;97146.56;;;10.98;89.69
78170;BME280;67412;49.892;14.490;2023-08-08T03:17:57;97129.38;;;11.00;89.91
78170;BME280;67412;49.892;14.490;2023-08-08T03:20:22;97137.88;;;11.04;89.41
78170;BME280;67412;49.892;14.490;2023-08-08T03:22:47;97143.06;;;11.01;90.57
78170;BME280;67412;49.892;14.490;2023-08-08T03:25:13;97132.88;;;10.95;90.57
78170;BME280;67412;49.892;14.490;2023-08-08T03:27:38;97140.72;;;10.90;90.66
78170;BME280;67412;49.892;14.490;2023-08-08T03:30:04;97136.56;;;10.82;92.22
78170;BME280;67412;49.892;14.490;2023-08-08T03:32:29;97139.34;;;10.71;92.83
78170;BME280;67412;49.892;14.490;2023-08-08T03:34:55;97140.88;;;10.81;92.18
78170;BME280;67412;49.892;14.490;2023-08-08T03:37:20;97143.50;;;10.78;92.92
78170;BME280;67412;49.892;14.490;2023-08-08T03:39:46;97140.94;;;10.78;92.91
78170;BME280;67412;49.892;14.490;2023-08-08T03:42:11;97152.94;;;10.76;93.00
78170;BME280;67412;49.892;14.490;2023-08-08T03:44:36;97146.06;;;10.77;93.13
78170;BME280;67412;49.892;14.490;2023-08-08T03:47:02;97140.94;;;10.78;94.05
78170;BME280;67412;49.892;14.490;2023-08-08T03:49:27;97146.84;;;10.82;93.92
78170;BME280;67412;49.892;14.490;2023-08-08T03:51:52;97143.41;;;10.83;93.76
78170;BME280;67412;49.892;14.490;2023-08-08T03:54:18;97149.28;;;10.89;94.03
78170;BME280;67412;49.892;14.490;2023-08-08T03:56:43;97149.28;;;10.89;94.16
78170;BME280;67412;49.892;14.490;2023-08-08T03:59:09;97150.13;;;10.90;93.70
78170;BME280;67412;49.892;14.490;2023-08-08T04:01:35;97150.06;;;10.94;93.98
78170;BME280;67412;49.892;14.490;2023-08-08T04:04:01;97144.00;;;10.97;93.97
78170;BME280;67412;49.892;14.490;2023-08-08T04:06:26;97141.44;;;10.95;94.92
78170;BME280;67412;49.892;14.490;2023-08-08T04:08:51;97139.72;;;10.96;95.00
78170;BME280;67412;49.892;14.490;2023-08-08T04:11:16;97150.19;;;10.87;95.94
78170;BME280;67412;49.892;14.490;2023-08-08T04:13:42;97148.50;;;10.86;96.68
78170;BME280;67412;49.892;14.490;2023-08-08T04:16:07;97137.25;;;10.91;96.45
78170;BME280;67412;49.892;14.490;2023-08-08T04:18:33;97139.00;;;10.91;97.30
78170;BME280;67412;49.892;14.490;2023-08-08T04:20:58;97133.84;;;10.91;97.09
78170;BME280;67412;49.892;14.490;2023-08-08T04:23:23;97139.78;;;10.93;96.61
78170;BME280;67412;49.892;14.490;2023-08-08T04:25:51;97149.22;;;10.94;96.38
78170;BME280;67412;49.892;14.490;2023-08-08T04:28:16;97148.28;;;10.98;95.12
78170;BME280;67412;49.892;14.490;2023-08-08T04:30:41;97157.72;;;10.97;95.37
78170;BME280;67412;49.892;14.490;2023-08-08T04:33:06;97169.63;;;11.01;94.39
78170;BME280;67412;49.892;14.490;2023-08-08T04:35:32;97163.66;;;10.99;95.17
78170;BME280;67412;49.892;14.490;2023-08-08T04:37:57;97166.38;;;10.92;95.63
78170;BME280;67412;49.892;14.490;2023-08-08T04:40:23;97168.09;;;10.91;96.21
78170;BME280;67412;49.892;14.490;2023-08-08T04:42:48;97162.00;;;10.97;95.98
78170;BME280;67412;49.892;14.490;2023-08-08T04:45:13;97161.09;;;10.99;96.04
78170;BME280;67412;49.892;14.490;2023-08-08T04:47:39;97155.88;;;11.04;95.96
78170;BME280;67412;49.892;14.490;2023-08-08T04:50:05;97173.78;;;11.07;95.86
78170;BME280;67412;49.892;14.490;2023-08-08T04:52:30;97170.91;;;11.24;95.43
78170;BME280;67412;49.892;14.490;2023-08-08T04:54:56;97172.50;;;11.31;95.48
78170;BME280;67412;49.892;14.490;2023-08-08T04:57:21;97181.66;;;11.44;95.41
78170;BME280;67412;49.892;14.490;2023-08-08T04:59:46;97184.84;;;11.56;93.98
78170;BME280;67412;49.892;14.490;2023-08-08T05:02:12;97178.75;;;11.60;93.10
78170;BME280;67412;49.892;14.490;2023-08-08T05:04:37;97176.03;;;11.68;93.32
78170;BME280;67412;49.892;14.490;2023-08-08T05:07:02;97180.81;;;11.85;92.77
78170;BME280;67412;49.892;14.490;2023-08-08T05:09:28;97178.06;;;11.94;91.54
78170;BME280;67412;49.892;14.490;2023-08-08T05:11:53;97178.91;;;11.96;92.09
78170;BME280;67412;49.892;14.490;2023-08-08T05:14:19;97172.13;;;11.92;91.71
78170;BME280;67412;49.892;14.490;2023-08-08T05:16:44;97173.09;;;11.86;92.54
78170;BME280;67412;49.892;14.490;2023-08-08T05:19:10;97174.97;;;11.78;91.79
78170;BME280;67412;49.892;14.490;2023-08-08T05:21:35;97170.50;;;11.88;91.43
78170;BME280;67412;49.892;14.490;2023-08-08T05:24:00;97174.00;;;11.84;92.11
78170;BME280;67412;49.892;14.490;2023-08-08T05:26:26;97179.16;;;11.84;90.89
78170;BME280;67412;49.892;14.490;2023-08-08T05:28:52;97179.94;;;11.87;91.05
78170;BME280;67412;49.892;14.490;2023-08-08T05:31:17;97170.50;;;11.86;91.55
78170;BME280;67412;49.892;14.490;2023-08-08T05:33:42;97177.28;;;11.92;90.74
78170;BME280;67412;49.892;14.490;2023-08-08T05:36:08;97171.34;;;11.88;91.78
78170;BME280;67412;49.892;14.490;2023-08-08T05:38:33;97180.31;;;12.07;90.81
78170;BME280;67412;49.892;14.490;2023-08-08T05:40:58;97179.22;;;12.19;89.87
78170;BME280;67412;49.892;14.490;2023-08-08T05:43:24;97172.84;;;12.34;89.00
78170;BME280;67412;49.892;14.490;2023-08-08T05:45:49;97167.88;;;12.63;90.70
78170;BME280;67412;49.892;14.490;2023-08-08T05:48:14;97159.38;;;12.92;87.56
78170;BME280;67412;49.892;14.490;2023-08-08T05:50:40;97161.66;;;13.04;85.46
78170;BME280;67412;49.892;14.490;2023-08-08T05:53:06;97162.09;;;13.20;86.67
78170;BME280;67412;49.892;14.490;2023-08-08T05:55:32;97164.94;;;13.09;86.28
78170;BME280;67412;49.892;14.490;2023-08-08T05:57:57;97148.91;;;12.98;87.90
78170;BME280;67412;49.892;14.490;2023-08-08T06:00:22;97156.63;;;12.99;86.95
78170;BME280;67412;49.892;14.490;2023-08-08T06:02:48;97156.06;;;12.88;87.56
78170;BME280;67412;49.892;14.490;2023-08-08T06:05:16;97161.44;;;12.79;88.16
78170;BME280;67412;49.892;14.490;2023-08-08T06:07:41;97165.44;;;12.91;86.39
78170;BME280;67412;49.892;14.490;2023-08-08T06:10:07;97166.97;;;12.98;87.82
78170;BME280;67412;49.892;14.490;2023-08-08T06:12:33;97167.78;;;13.00;87.14
78170;BME280;67412;49.892;14.490;2023-08-08T06:14:58;97159.78;;;13.09;88.23
78170;BME280;67412;49.892;14.490;2023-08-08T06:17:24;97159.38;;;13.26;87.56
78170;BME280;67412;49.892;14.490;2023-08-08T06:19:49;97157.47;;;13.32;87.67
78170;BME280;67412;49.892;14.490;2023-08-08T06:22:19;97153.34;;;13.56;86.74
78170;BME280;67412;49.892;14.490;2023-08-08T06:24:44;97159.09;;;13.66;86.30
78170;BME280;67412;49.892;14.490;2023-08-08T06:27:10;97168.50;;;13.68;83.91
78170;BME280;67412;49.892;14.490;2023-08-08T06:29:35;97167.03;;;13.60;84.64
78170;BME280;67412;49.892;14.490;2023-08-08T06:32:00;97160.44;;;13.79;83.89
78170;BME280;67412;49.892;14.490;2023-08-08T06:34:26;97152.81;;;13.74;84.25
78170;BME280;67412;49.892;14.490;2023-08-08T06:36:51;97158.56;;;13.54;83.88
78170;BME280;67412;49.892;14.490;2023-08-08T06:39:16;97175.19;;;13.44;85.05
78170;BME280;67412;49.892;14.490;2023-08-08T06:41:44;97171.88;;;13.39;82.62
78170;BME280;67412;49.892;14.490;2023-08-08T06:44:09;97176.97;;;13.42;83.49
78170;BME280;67412;49.892;14.490;2023-08-08T06:46:35;97182.81;;;13.49;83.98
78170;BME280;67412;49.892;14.490;2023-08-08T06:49:00;97176.91;;;13.45;83.08
78170;BME280;67412;49.892;14.490;2023-08-08T06:51:26;97183.28;;;13.91;84.49
78170;BME280;67412;49.892;14.490;2023-08-08T06:53:52;97175.94;;;14.07;82.54
78170;BME280;67412;49.892;14.490;2023-08-08T06:56:18;97169.63;;;14.17;83.63
78170;BME280;67412;49.892;14.490;2023-08-08T06:58:43;97168.34;;;14.30;82.48
78170;BME280;67412;49.892;14.490;2023-08-08T07:01:09;97166.00;;;14.22;81.21
78170;BME280;67412;49.892;14.490;2023-08-08T07:03:35;97176.00;;;14.33;82.64
78170;BME280;67412;49.892;14.490;2023-08-08T07:06:00;97174.13;;;14.39;81.87
78170;BME280;67412;49.892;14.490;2023-08-08T07:08:26;97172.81;;;14.52;79.54
78170;BME280;67412;49.892;14.490;2023-08-08T07:10:51;97167.13;;;14.41;80.10
78170;BME280;67412;49.892;14.490;2023-08-08T07:13:16;97167.03;;;14.44;81.25
78170;BME280;67412;49.892;14.490;2023-08-08T07:15:42;97172.91;;;14.49;80.21
78170;BME280;67412;49.892;14.490;2023-08-08T07:18:07;97180.31;;;14.32;79.20
78170;BME280;67412;49.892;14.490;2023-08-08T07:20:33;97182.50;;;14.46;78.95
78170;BME280;67412;49.892;14.490;2023-08-08T07:22:58;97184.78;;;14.55;77.16
78170;BME280;67412;49.892;14.490;2023-08-08T07:25:25;97186.72;;;14.48;76.78
78170;BME280;67412;49.892;14.490;2023-08-08T07:27:51;97187.47;;;14.52;77.54
78170;BME280;67412;49.892;14.490;2023-08-08T07:30:16;97186.59;;;14.53;76.71
78170;BME280;67412;49.892;14.490;2023-08-08T07:32:41;97186.00;;;14.43;77.62
78170;BME280;67412;49.892;14.490;2023-08-08T07:35:07;97180.59;;;14.77;76.75
78170;BME280;67412;49.892;14.490;2023-08-08T07:37:33;97179.28;;;14.92;76.11
78170;BME280;67412;49.892;14.490;2023-08-08T07:39:59;97172.31;;;14.94;75.61
78170;BME280;67412;49.892;14.490;2023-08-08T07:42:24;97180.44;;;15.08;76.03
78170;BME280;67412;49.892;14.490;2023-08-08T07:44:50;97167.97;;;15.19;74.93
78170;BME280;67412;49.892;14.490;2023-08-08T07:47:15;97174.38;;;15.09;71.89
78170;BME280;67412;49.892;14.490;2023-08-08T07:49:40;97168.72;;;14.98;72.76
78170;BME280;67412;49.892;14.490;2023-08-08T07:52:06;97167.44;;;15.10;71.76
78170;BME280;67412;49.892;14.490;2023-08-08T07:54:32;97173.47;;;15.10;72.00
78170;BME280;67412;49.892;14.490;2023-08-08T07:56:58;97164.06;;;15.32;73.48
78170;BME280;67412;49.892;14.490;2023-08-08T07:59:23;97168.13;;;15.39;73.10
78170;BME280;67412;49.892;14.490;2023-08-08T08:01:49;97158.34;;;15.23;73.94
78170;BME280;67412;49.892;14.490;2023-08-08T08:04:14;97158.78;;;15.35;74.34
78170;BME280;67412;49.892;14.490;2023-08-08T08:06:39;97154.66;;;15.55;72.16
78170;BME280;67412;49.892;14.490;2023-08-08T08:09:04;97150.06;;;15.63;71.95
78170;BME280;67412;49.892;14.490;2023-08-08T08:11:30;97154.53;;;15.81;70.25
78170;BME280;67412;49.892;14.490;2023-08-08T08:13:55;97146.06;;;15.99;70.72
78170;BME280;67412;49.892;14.490;2023-08-08T08:16:21;97148.06;;;16.14;68.49
78170;BME280;67412;49.892;14.490;2023-08-08T08:18:46;97155.38;;;16.26;68.90
78170;BME280;67412;49.892;14.490;2023-08-08T08:21:13;97151.63;;;16.33;66.01
78170;BME280;67412;49.892;14.490;2023-08-08T08:23:39;97146.31;;;16.15;65.51
78170;BME280;67412;49.892;14.490;2023-08-08T08:26:04;97144.63;;;16.35;66.07
78170;BME280;67412;49.892;14.490;2023-08-08T08:28:30;97141.75;;;16.21;65.78
78170;BME280;67412;49.892;14.490;2023-08-08T08:30:55;97138.72;;;16.10;63.69
78170;BME280;67412;49.892;14.490;2023-08-08T08:33:20;97135.69;;;16.42;65.15
78170;BME280;67412;49.892;14.490;2023-08-08T08:35:45;97134.53;;;16.50;66.58
78170;BME280;67412;49.892;14.490;2023-08-08T08:38:11;97138.38;;;16.19;64.04
78170;BME280;67412;49.892;14.490;2023-08-08T08:40:38;97136.56;;;16.00;65.40
78170;BME280;67412;49.892;14.490;2023-08-08T08:43:06;97146.16;;;15.74;65.78
78170;BME280;67412;49.892;14.490;2023-08-08T08:45:35;97144.03;;;15.62;65.64
78170;BME280;67412;49.892;14.490;2023-08-08T08:48:03;97143.00;;;15.66;67.32
78170;BME280;67412;49.892;14.490;2023-08-08T08:50:32;97145.75;;;15.62;65.99
78170;BME280;67412;49.892;14.490;2023-08-08T08:52:58;97140.44;;;15.88;66.28
78170;BME280;67412;49.892;14.490;2023-08-08T08:55:25;97142.22;;;16.09;65.74
78170;BME280;67412;49.892;14.490;2023-08-08T08:57:51;97133.53;;;16.32;65.07
78170;BME280;67412;49.892;14.490;2023-08-08T09:00:17;97124.97;;;16.94;65.48
78170;BME280;67412;49.892;14.490;2023-08-08T09:02:42;97130.31;;;16.69;62.75
78170;BME280;67412;49.892;14.490;2023-08-08T09:05:08;97120.41;;;16.99;62.96
78170;BME280;67412;49.892;14.490;2023-08-08T09:07:35;97127.94;;;17.05;62.47
78170;BME280;67412;49.892;14.490;2023-08-08T09:10:01;97137.47;;;16.84;63.48
78170;BME280;67412;49.892;14.490;2023-08-08T09:12:27;97132.91;;;16.69;63.72
78170;BME280;67412;49.892;14.490;2023-08-08T09:14:56;97135.19;;;16.55;60.98
78170;BME280;67412;49.892;14.490;2023-08-08T09:17:21;97145.00;;;16.48;63.43
78170;BME280;67412;49.892;14.490;2023-08-08T09:19:47;97152.34;;;16.37;61.35
78170;BME280;67412;49.892;14.490;2023-08-08T09:22:13;97140.84;;;16.86;63.37
78170;BME280;67412;49.892;14.490;2023-08-08T09:24:42;97140.41;;;17.17;59.78
78170;BME280;67412;49.892;14.490;2023-08-08T09:27:08;97137.22;;;17.49;61.52
78170;BME280;67412;49.892;14.490;2023-08-08T09:29:35;97134.97;;;17.21;58.57
78170;BME280;67412;49.892;14.490;2023-08-08T09:32:03;97129.13;;;17.36;60.16
78170;BME280;67412;49.892;14.490;2023-08-08T09:34:29;97136.53;;;17.46;60.56
78170;BME280;67412;49.892;14.490;2023-08-08T09:36:54;97127.94;;;17.64;61.18
78170;BME280;67412;49.892;14.490;2023-08-08T09:39:20;97122.44;;;18.07;58.99
78170;BME280;67412;49.892;14.490;2023-08-08T09:41:46;97118.44;;;18.00;58.09
78170;BME280;67412;49.892;14.490;2023-08-08T09:44:12;97119.84;;;18.07;59.17
78170;BME280;67412;49.892;14.490;2023-08-08T09:46:38;97123.34;;;17.50;58.78
78170;BME280;67412;49.892;14.490;2023-08-08T09:49:05;97122.03;;;17.79;61.48
78170;BME280;67412;49.892;14.490;2023-08-08T09:51:30;97123.22;;;17.91;59.93
78170;BME280;67412;49.892;14.490;2023-08-08T09:53:56;97118.94;;;18.08;57.82
78170;BME280;67412;49.892;14.490;2023-08-08T09:56:23;97122.25;;;17.93;56.89
78170;BME280;67412;49.892;14.490;2023-08-08T09:58:48;97118.59;;;17.60;56.48
78170;BME280;67412;49.892;14.490;2023-08-08T10:01:14;97131.78;;;17.74;60.21
78170;BME280;67412;49.892;14.490;2023-08-08T10:03:41;97121.97;;;17.62;56.31
78170;BME280;67412;49.892;14.490;2023-08-08T10:06:08;97109.69;;;17.84;57.36
78170;BME280;67412;49.892;14.490;2023-08-08T10:08:34;97113.31;;;18.17;56.63
78170;BME280;67412;49.892;14.490;2023-08-08T10:11:01;97113.38;;;17.97;56.89
78170;BME280;67412;49.892;14.490;2023-08-08T10:13:27;97104.75;;;17.97;57.89
78170;BME280;67412;49.892;14.490;2023-08-08T10:15:54;97124.59;;;17.42;55.35
78170;BME280;67412;49.892;14.490;2023-08-08T10:18:24;97106.19;;;17.46;57.89
78170;BME280;67412;49.892;14.490;2023-08-08T10:20:50;97111.97;;;17.53;56.28
78170;BME280;67412;49.892;14.490;2023-08-08T10:23:19;97107.78;;;17.69;55.93
78170;BME280;67412;49.892;14.490;2023-08-08T10:25:47;97095.47;;;18.10;56.49
78170;BME280;67412;49.892;14.490;2023-08-08T10:28:14;97086.41;;;18.00;57.50
78170;BME280;67412;49.892;14.490;2023-08-08T10:30:49;97088.16;;;18.18;54.77
78170;BME280;67412;49.892;14.490;2023-08-08T10:33:22;97087.94;;;18.04;54.93
78170;BME280;67412;49.892;14.490;2023-08-08T10:36:05;97075.25;;;18.15;54.07
78170;BME280;67412;49.892;14.490;2023-08-08T10:39:01;97073.72;;;18.29;54.12
78170;BME280;67412;49.892;14.490;2023-08-08T10:41:26;97073.66;;;18.48;54.79
78170;BME280;67412;49.892;14.490;2023-08-08T10:43:54;97057.81;;;18.87;53.59
78170;BME280;67412;49.892;14.490;2023-08-08T10:46:23;97064.38;;;18.94;52.32
78170;BME280;67412;49.892;14.490;2023-08-08T10:48:55;97052.94;;;19.14;54.17
78170;BME280;67412;49.892;14.490;2023-08-08T10:51:21;97067.53;;;18.83;53.81
78170;BME280;67412;49.892;14.490;2023-08-08T10:53:51;97052.22;;;18.95;52.87
78170;BME280;67412;49.892;14.490;2023-08-08T10:56:18;97045.53;;;19.06;51.49
78170;BME280;67412;49.892;14.490;2023-08-08T10:58:48;97050.69;;;19.23;53.21
78170;BME280;67412;49.892;14.490;2023-08-08T11:01:13;97046.06;;;19.28;52.11
78170;BME280;67412;49.892;14.490;2023-08-08T11:03:40;97045.28;;;19.44;49.69
78170;BME280;67412;49.892;14.490;2023-08-08T11:06:07;97033.63;;;19.51;51.53
78170;BME280;67412;49.892;14.490;2023-08-08T11:08:33;97030.00;;;19.85;49.33
78170;BME280;67412;49.892;14.490;2023-08-08T11:11:00;97036.28;;;19.96;49.57
78170;BME280;67412;49.892;14.490;2023-08-08T11:13:26;97026.59;;;19.36;47.37
78170;BME280;67412;49.892;14.490;2023-08-08T11:15:51;97034.63;;;19.15;47.57
78170;BME280;67412;49.892;14.490;2023-08-08T11:18:17;97025.13;;;19.47;50.17
78170;BME280;67412;49.892;14.490;2023-08-08T11:20:43;97014.41;;;19.36;47.86
78170;BME280;67412;49.892;14.490;2023-08-08T11:23:09;97022.50;;;19.47;46.89
78170;BME280;67412;49.892;14.490;2023-08-08T11:25:39;97021.94;;;19.58;47.35
78170;BME280;67412;49.892;14.490;2023-08-08T11:28:05;97014.34;;;19.69;46.22
78170;BME280;67412;49.892;14.490;2023-08-08T11:30:33;97019.00;;;19.31;44.06
78170;BME280;67412;49.892;14.490;2023-08-08T11:32:59;97025.66;;;19.21;49.02
78170;BME280;67412;49.892;14.490;2023-08-08T11:35:25;97025.97;;;18.82;49.86
78170;BME280;67412;49.892;14.490;2023-08-08T11:37:53;97037.00;;;18.53;49.60
78170;BME280;67412;49.892;14.490;2023-08-08T11:40:19;97037.63;;;18.58;51.07
78170;BME280;67412;49.892;14.490;2023-08-08T11:42:45;97051.25;;;18.63;49.50
78170;BME280;67412;49.892;14.490;2023-08-08T11:45:12;97037.09;;;18.51;50.19
78170;BME280;67412;49.892;14.490;2023-08-08T11:47:41;97042.84;;;18.58;49.47
78170;BME280;67412;49.892;14.490;2023-08-08T11:50:08;97033.78;;;18.65;47.96
78170;BME280;67412;49.892;14.490;2023-08-08T11:52:42;97026.19;;;18.95;48.82
78170;BME280;67412;49.892;14.490;2023-08-08T11:55:11;97018.81;;;19.51;49.21
78170;BME280;67412;49.892;14.490;2023-08-08T11:57:38;97014.94;;;19.43;46.04
78170;BME280;67412;49.892;14.490;2023-08-08T12:00:13;97021.50;;;19.50;47.54
78170;BME280;67412;49.892;14.490;2023-08-08T12:02:39;97015.19;;;19.54;47.06
78170;BME280;67412;49.892;14.490;2023-08-08T12:05:09;97016.72;;;19.89;47.19
78170;BME280;67412;49.892;14.490;2023-08-08T12:07:36;97012.94;;;19.79;45.91
78170;BME280;67412;49.892;14.490;2023-08-08T12:10:05;97019.31;;;19.73;45.81
78170;BME280;67412;49.892;14.490;2023-08-08T12:12:32;97006.34;;;19.41;46.24
78170;BME280;67412;49.892;14.490;2023-08-08T12:15:07;97004.78;;;19.05;47.25
78170;BME280;67412;49.892;14.490;2023-08-08T12:17:32;97006.84;;;18.49;48.69
78170;BME280;67412;49.892;14.490;2023-08-08T12:20:04;97012.97;;;18.30;47.95
78170;BME280;67412;49.892;14.490;2023-08-08T12:22:34;97000.03;;;18.63;49.73
78170;BME280;67412;49.892;14.490;2023-08-08T12:25:00;96995.03;;;19.42;47.11
78170;BME280;67412;49.892;14.490;2023-08-08T12:27:25;96998.00;;;19.18;47.40
78170;BME280;67412;49.892;14.490;2023-08-08T12:29:51;96997.03;;;19.84;47.40
78170;BME280;67412;49.892;14.490;2023-08-08T12:32:19;97003.59;;;19.91;46.40
78170;BME280;67412;49.892;14.490;2023-08-08T12:34:45;96998.72;;;19.69;44.39
78170;BME280;67412;49.892;14.490;2023-08-08T12:37:10;96994.28;;;19.55;43.81
78170;BME280;67412;49.892;14.490;2023-08-08T12:39:35;96994.53;;;19.82;43.89
78170;BME280;67412;49.892;14.490;2023-08-08T12:42:01;96984.41;;;19.92;43.26
78170;BME280;67412;49.892;14.490;2023-08-08T12:44:26;96990.19;;;20.12;43.02